S5AYZ OMRJ-OMAG
Flight info
| Callsign | S5AYZ |
|---|---|
| Flight time | 0h 58m |
| Altitude | 1400 |
| Route | OMRJ AL HILLEW VILLAGE OMSJ SHARJA UNIVERSITY MALIHA/LALBA INTERSECTION DUBAI FOOTBAL CLUB RAD CROSSING WATER TANK GARGOOD BRIDGE AL MAKTOOM BRIDGE QUEEN ELIZABETH NIKKI BEACK CLUB SEA HORSE HORSE CROSSING OMAG |
| Aircraft | PIVI/L-SDE1/S |
Departure
| Time | 2026-05-01 10:44 |
|---|---|
| Airport | Jazirah Airport (OMRJ) |
Arrival
| Time | 2026-05-01 11:42 |
|---|---|
| Airport | KIZAD Airport (OMAG) |
| Time | Latitude | Longitude | Altitude | Speed | Heading |
|---|---|---|---|---|---|
| 2026-05-01 10:31 | 25.66415 | 55.77878 | 9 ft | 0 kts | 281° |
| 2026-05-01 10:44 | 25.66418 | 55.77856 | 9 ft | 25 kts | 279° |
| 2026-05-01 10:44 | 25.66504 | 55.77453 | 301 ft | 64 kts | 289° |
| 2026-05-01 10:44 | 25.66734 | 55.76988 | 829 ft | 64 kts | 309° |
| 2026-05-01 10:44 | 25.67097 | 55.76671 | 1288 ft | 77 kts | 326° |
| 2026-05-01 10:45 | 25.67646 | 55.76276 | 1419 ft | 111 kts | 318° |
| 2026-05-01 10:45 | 25.68033 | 55.75480 | 1116 ft | 120 kts | 275° |
| 2026-05-01 10:45 | 25.67827 | 55.74553 | 461 ft | 137 kts | 242° |
| 2026-05-01 10:45 | 25.67199 | 55.73978 | 665 ft | 104 kts | 193° |
| 2026-05-01 10:46 | 25.66466 | 55.74147 | 706 ft | 106 kts | 170° |
| 2026-05-01 10:46 | 25.65791 | 55.74149 | 995 ft | 87 kts | 204° |
| 2026-05-01 10:46 | 25.65312 | 55.73705 | 1019 ft | 105 kts | 232° |
| 2026-05-01 10:46 | 25.64861 | 55.72998 | 860 ft | 115 kts | 238° |
| 2026-05-01 10:47 | 25.64455 | 55.72255 | 854 ft | 111 kts | 241° |
| 2026-05-01 10:47 | 25.64052 | 55.71529 | 823 ft | 111 kts | 234° |
| 2026-05-01 10:47 | 25.63537 | 55.70888 | 804 ft | 112 kts | 225° |
| 2026-05-01 10:47 | 25.62938 | 55.70357 | 838 ft | 110 kts | 212° |
| 2026-05-01 10:48 | 25.62225 | 55.70046 | 858 ft | 110 kts | 200° |
| 2026-05-01 10:48 | 25.61492 | 55.69786 | 860 ft | 111 kts | 201° |
| 2026-05-01 10:48 | 25.60768 | 55.69509 | 877 ft | 109 kts | 201° |
| 2026-05-01 10:48 | 25.60040 | 55.69238 | 882 ft | 110 kts | 200° |
| 2026-05-01 10:49 | 25.59315 | 55.68951 | 876 ft | 111 kts | 203° |
| 2026-05-01 10:49 | 25.58597 | 55.68648 | 904 ft | 110 kts | 202° |
| 2026-05-01 10:49 | 25.57839 | 55.68331 | 594 ft | 129 kts | 204° |
| 2026-05-01 10:49 | 25.57054 | 55.67948 | 537 ft | 111 kts | 207° |
| 2026-05-01 10:50 | 25.56388 | 55.67586 | 597 ft | 111 kts | 208° |
| 2026-05-01 10:50 | 25.55738 | 55.67214 | 696 ft | 106 kts | 211° |
| 2026-05-01 10:50 | 25.55136 | 55.66821 | 883 ft | 100 kts | 216° |
| 2026-05-01 10:50 | 25.54482 | 55.66406 | 807 ft | 110 kts | 213° |
| 2026-05-01 10:51 | 25.53878 | 55.65958 | 947 ft | 100 kts | 217° |
| 2026-05-01 10:51 | 25.53305 | 55.65488 | 992 ft | 106 kts | 219° |
| 2026-05-01 10:51 | 25.52732 | 55.64979 | 1049 ft | 105 kts | 221° |
| 2026-05-01 10:51 | 25.52099 | 55.64568 | 1071 ft | 110 kts | 199° |
| 2026-05-01 10:52 | 25.51319 | 55.64554 | 1030 ft | 114 kts | 181° |
| 2026-05-01 10:52 | 25.50513 | 55.64528 | 934 ft | 118 kts | 185° |
| 2026-05-01 10:52 | 25.49677 | 55.64422 | 626 ft | 125 kts | 189° |
| 2026-05-01 10:52 | 25.48933 | 55.64274 | 827 ft | 107 kts | 198° |
| 2026-05-01 10:53 | 25.48227 | 55.63995 | 831 ft | 110 kts | 205° |
| 2026-05-01 10:53 | 25.47542 | 55.63645 | 908 ft | 107 kts | 208° |
| 2026-05-01 10:53 | 25.46864 | 55.63275 | 933 ft | 110 kts | 209° |
| 2026-05-01 10:53 | 25.46202 | 55.62886 | 1004 ft | 107 kts | 210° |
| 2026-05-01 10:54 | 25.45539 | 55.62476 | 993 ft | 110 kts | 213° |
| 2026-05-01 10:54 | 25.44869 | 55.62081 | 1023 ft | 109 kts | 203° |
| 2026-05-01 10:54 | 25.44117 | 55.61897 | 1018 ft | 113 kts | 187° |
| 2026-05-01 10:54 | 25.43350 | 55.61838 | 1063 ft | 110 kts | 187° |
| 2026-05-01 10:55 | 25.42597 | 55.61721 | 1070 ft | 111 kts | 193° |
| 2026-05-01 10:55 | 25.41843 | 55.61506 | 1046 ft | 111 kts | 200° |
| 2026-05-01 10:55 | 25.41118 | 55.61222 | 998 ft | 114 kts | 204° |
| 2026-05-01 10:55 | 25.40395 | 55.60865 | 955 ft | 112 kts | 207° |
| 2026-05-01 10:56 | 25.39695 | 55.60481 | 900 ft | 113 kts | 209° |
| 2026-05-01 10:56 | 25.38991 | 55.60081 | 856 ft | 114 kts | 209° |
| 2026-05-01 10:56 | 25.38304 | 55.59686 | 872 ft | 110 kts | 208° |
| 2026-05-01 10:56 | 25.37657 | 55.59260 | 889 ft | 108 kts | 217° |
| 2026-05-01 10:57 | 25.37156 | 55.58657 | 896 ft | 107 kts | 241° |
| 2026-05-01 10:57 | 25.36935 | 55.57877 | 910 ft | 107 kts | 264° |
| 2026-05-01 10:57 | 25.36623 | 55.57176 | 909 ft | 110 kts | 214° |
| 2026-05-01 10:57 | 25.35992 | 55.56728 | 908 ft | 108 kts | 233° |
| 2026-05-01 10:58 | 25.35479 | 55.56127 | 907 ft | 108 kts | 225° |
| 2026-05-01 10:58 | 25.35045 | 55.55445 | 880 ft | 110 kts | 239° |
| 2026-05-01 10:58 | 25.34651 | 55.54731 | 902 ft | 108 kts | 240° |
| 2026-05-01 10:58 | 25.34267 | 55.54012 | 908 ft | 109 kts | 241° |
| 2026-05-01 10:59 | 25.33879 | 55.53292 | 905 ft | 109 kts | 240° |
| 2026-05-01 10:59 | 25.33475 | 55.52585 | 901 ft | 109 kts | 236° |
| 2026-05-01 10:59 | 25.32990 | 55.51954 | 897 ft | 109 kts | 229° |
| 2026-05-01 10:59 | 25.32465 | 55.51349 | 900 ft | 109 kts | 227° |
| 2026-05-01 11:00 | 25.31941 | 55.50743 | 897 ft | 109 kts | 228° |
| 2026-05-01 11:00 | 25.31421 | 55.50137 | 900 ft | 109 kts | 229° |
| 2026-05-01 11:00 | 25.30898 | 55.49534 | 900 ft | 109 kts | 227° |
| 2026-05-01 11:00 | 25.30358 | 55.48943 | 904 ft | 110 kts | 226° |
| 2026-05-01 11:01 | 25.29806 | 55.48354 | 906 ft | 111 kts | 225° |
| 2026-05-01 11:01 | 25.29256 | 55.47764 | 901 ft | 110 kts | 225° |
| 2026-05-01 11:01 | 25.28657 | 55.47254 | 897 ft | 110 kts | 205° |
| 2026-05-01 11:01 | 25.27934 | 55.47099 | 922 ft | 110 kts | 169° |
| 2026-05-01 11:02 | 25.27447 | 55.47753 | 754 ft | 127 kts | 99° |
| 2026-05-01 11:02 | 25.27512 | 55.48711 | 646 ft | 123 kts | 83° |
| 2026-05-01 11:02 | 25.27548 | 55.49643 | 598 ft | 120 kts | 92° |
| 2026-05-01 11:02 | 25.27438 | 55.50547 | 622 ft | 118 kts | 105° |
| 2026-05-01 11:03 | 25.27137 | 55.51348 | 734 ft | 109 kts | 118° |
| 2026-05-01 11:03 | 25.26755 | 55.52087 | 800 ft | 110 kts | 123° |
| 2026-05-01 11:03 | 25.26279 | 55.52735 | 819 ft | 113 kts | 149° |
| 2026-05-01 11:03 | 25.25531 | 55.52927 | 850 ft | 110 kts | 176° |
| 2026-05-01 11:04 | 25.24788 | 55.53080 | 901 ft | 110 kts | 163° |
| 2026-05-01 11:04 | 25.24092 | 55.53415 | 922 ft | 112 kts | 155° |
| 2026-05-01 11:04 | 25.23380 | 55.53791 | 884 ft | 116 kts | 157° |
| 2026-05-01 11:04 | 25.22646 | 55.54150 | 852 ft | 116 kts | 159° |
| 2026-05-01 11:05 | 25.21872 | 55.54283 | 825 ft | 112 kts | 190° |
| 2026-05-01 11:05 | 25.21187 | 55.53922 | 837 ft | 109 kts | 217° |
| 2026-05-01 11:05 | 25.20621 | 55.53363 | 852 ft | 109 kts | 227° |
| 2026-05-01 11:05 | 25.20134 | 55.52736 | 888 ft | 107 kts | 232° |
| 2026-05-01 11:06 | 25.19643 | 55.52112 | 895 ft | 108 kts | 225° |
| 2026-05-01 11:06 | 25.19068 | 55.51569 | 909 ft | 109 kts | 221° |
| 2026-05-01 11:06 | 25.18502 | 55.51014 | 931 ft | 108 kts | 225° |
| 2026-05-01 11:07 | 25.17408 | 55.49891 | 967 ft | 108 kts | 226° |
| 2026-05-01 11:07 | 25.16921 | 55.49268 | 938 ft | 108 kts | 245° |
| 2026-05-01 11:07 | 25.16914 | 55.48456 | 916 ft | 108 kts | 283° |
| 2026-05-01 11:07 | 25.17066 | 55.47637 | 899 ft | 109 kts | 280° |
| 2026-05-01 11:08 | 25.17196 | 55.46817 | 890 ft | 109 kts | 279° |
| 2026-05-01 11:08 | 25.17345 | 55.45997 | 882 ft | 108 kts | 282° |
| 2026-05-01 11:08 | 25.17704 | 55.44361 | 849 ft | 108 kts | 280° |
| 2026-05-01 11:09 | 25.17853 | 55.43556 | 876 ft | 108 kts | 281° |
| 2026-05-01 11:09 | 25.17990 | 55.42749 | 875 ft | 108 kts | 278° |
| 2026-05-01 11:09 | 25.18097 | 55.41924 | 871 ft | 109 kts | 276° |
| 2026-05-01 11:10 | 25.18270 | 55.40298 | 884 ft | 106 kts | 276° |
| 2026-05-01 11:10 | 25.18384 | 55.39502 | 920 ft | 105 kts | 279° |
| 2026-05-01 11:10 | 25.18513 | 55.38706 | 922 ft | 106 kts | 281° |
| 2026-05-01 11:10 | 25.18626 | 55.37870 | 802 ft | 109 kts | 280° |
| 2026-05-01 11:11 | 25.19216 | 55.37574 | 778 ft | 117 kts | 10° |
| 2026-05-01 11:11 | 25.20011 | 55.37788 | 681 ft | 118 kts | 13° |
| 2026-05-01 11:11 | 25.20801 | 55.38052 | 608 ft | 117 kts | 13° |
| 2026-05-01 11:11 | 25.21531 | 55.37982 | 675 ft | 106 kts | 327° |
| 2026-05-01 11:12 | 25.22078 | 55.37393 | 586 ft | 109 kts | 310° |
| 2026-05-01 11:12 | 25.22523 | 55.36743 | 633 ft | 106 kts | 303° |
| 2026-05-01 11:12 | 25.22971 | 55.36064 | 595 ft | 110 kts | 304° |
| 2026-05-01 11:12 | 25.23394 | 55.35358 | 519 ft | 110 kts | 296° |
| 2026-05-01 11:13 | 25.23699 | 55.34614 | 613 ft | 102 kts | 283° |
| 2026-05-01 11:13 | 25.23772 | 55.33843 | 685 ft | 97 kts | 282° |
| 2026-05-01 11:13 | 25.24278 | 55.33382 | 732 ft | 102 kts | 330° |
| 2026-05-01 11:13 | 25.24884 | 55.32998 | 792 ft | 103 kts | 326° |
| 2026-05-01 11:14 | 25.25448 | 55.32519 | 808 ft | 104 kts | 297° |
| 2026-05-01 11:14 | 25.25599 | 55.31741 | 820 ft | 105 kts | 281° |
| 2026-05-01 11:14 | 25.25755 | 55.30947 | 826 ft | 108 kts | 284° |
| 2026-05-01 11:14 | 25.25975 | 55.30139 | 792 ft | 110 kts | 287° |
| 2026-05-01 11:15 | 25.26218 | 55.29335 | 773 ft | 111 kts | 289° |
| 2026-05-01 11:15 | 25.26384 | 55.28519 | 737 ft | 111 kts | 262° |
| 2026-05-01 11:15 | 25.25988 | 55.27800 | 717 ft | 109 kts | 237° |
| 2026-05-01 11:15 | 25.25633 | 55.27069 | 772 ft | 103 kts | 242° |
| 2026-05-01 11:16 | 25.25207 | 55.26396 | 731 ft | 110 kts | 232° |
| 2026-05-01 11:16 | 25.24704 | 55.25781 | 809 ft | 106 kts | 226° |
| 2026-05-01 11:16 | 25.24167 | 55.25224 | 854 ft | 107 kts | 224° |
| 2026-05-01 11:16 | 25.23614 | 55.24696 | 899 ft | 108 kts | 221° |
| 2026-05-01 11:17 | 25.22987 | 55.24211 | 869 ft | 110 kts | 214° |
| 2026-05-01 11:17 | 25.22353 | 55.23752 | 857 ft | 109 kts | 220° |
| 2026-05-01 11:17 | 25.22016 | 55.23056 | 885 ft | 105 kts | 258° |
| 2026-05-01 11:17 | 25.21898 | 55.22247 | 854 ft | 106 kts | 264° |
| 2026-05-01 11:18 | 25.21750 | 55.21448 | 831 ft | 108 kts | 248° |
| 2026-05-01 11:18 | 25.21481 | 55.20678 | 831 ft | 107 kts | 253° |
| 2026-05-01 11:18 | 25.21352 | 55.19883 | 838 ft | 106 kts | 258° |
| 2026-05-01 11:18 | 25.21050 | 55.19112 | 788 ft | 109 kts | 248° |
| 2026-05-01 11:19 | 25.20618 | 55.18466 | 822 ft | 107 kts | 216° |
| 2026-05-01 11:19 | 25.19993 | 55.18001 | 813 ft | 109 kts | 216° |
| 2026-05-01 11:19 | 25.19380 | 55.17526 | 842 ft | 108 kts | 213° |
| 2026-05-01 11:19 | 25.18671 | 55.17200 | 826 ft | 110 kts | 198° |
| 2026-05-01 11:20 | 25.17920 | 55.17043 | 852 ft | 111 kts | 191° |
| 2026-05-01 11:20 | 25.17157 | 55.16924 | 881 ft | 110 kts | 186° |
| 2026-05-01 11:20 | 25.16394 | 55.16953 | 858 ft | 113 kts | 178° |
| 2026-05-01 11:20 | 25.15618 | 55.16954 | 886 ft | 110 kts | 186° |
| 2026-05-01 11:21 | 25.14851 | 55.16860 | 870 ft | 112 kts | 189° |
| 2026-05-01 11:21 | 25.14088 | 55.16777 | 903 ft | 111 kts | 187° |
| 2026-05-01 11:21 | 25.13310 | 55.16717 | 913 ft | 111 kts | 186° |
| 2026-05-01 11:21 | 25.12549 | 55.16640 | 957 ft | 110 kts | 190° |
| 2026-05-01 11:22 | 25.11795 | 55.16485 | 964 ft | 110 kts | 197° |
| 2026-05-01 11:22 | 25.11065 | 55.16245 | 981 ft | 110 kts | 200° |
| 2026-05-01 11:22 | 25.10341 | 55.15983 | 967 ft | 111 kts | 201° |
| 2026-05-01 11:22 | 25.09628 | 55.15695 | 999 ft | 110 kts | 205° |
| 2026-05-01 11:23 | 25.08924 | 55.15350 | 1009 ft | 109 kts | 207° |
| 2026-05-01 11:23 | 25.08340 | 55.14842 | 1023 ft | 107 kts | 232° |
| 2026-05-01 11:23 | 25.07634 | 55.14564 | 893 ft | 118 kts | 184° |
| 2026-05-01 11:23 | 25.06873 | 55.14358 | 893 ft | 109 kts | 197° |
| 2026-05-01 11:24 | 25.06182 | 55.14020 | 824 ft | 112 kts | 218° |
| 2026-05-01 11:24 | 25.05600 | 55.13460 | 825 ft | 108 kts | 227° |
| 2026-05-01 11:24 | 25.04504 | 55.12305 | 805 ft | 108 kts | 224° |
| 2026-05-01 11:25 | 25.03962 | 55.11745 | 786 ft | 109 kts | 226° |
| 2026-05-01 11:25 | 25.03555 | 55.10244 | 866 ft | 104 kts | 266° |
| 2026-05-01 11:25 | 25.03499 | 55.09449 | 938 ft | 104 kts | 266° |
| 2026-05-01 11:26 | 25.03499 | 55.08659 | 997 ft | 104 kts | 275° |
| 2026-05-01 11:26 | 25.03547 | 55.07053 | 1048 ft | 105 kts | 267° |
| 2026-05-01 11:26 | 25.03523 | 55.06247 | 1074 ft | 106 kts | 269° |
| 2026-05-01 11:27 | 25.03555 | 55.05422 | 995 ft | 113 kts | 274° |
| 2026-05-01 11:27 | 25.03623 | 55.04575 | 1007 ft | 106 kts | 275° |
| 2026-05-01 11:27 | 25.03738 | 55.03773 | 958 ft | 110 kts | 281° |
| 2026-05-01 11:27 | 25.03903 | 55.02966 | 956 ft | 106 kts | 278° |
| 2026-05-01 11:28 | 25.03966 | 55.02149 | 937 ft | 108 kts | 271° |
| 2026-05-01 11:28 | 25.03820 | 55.01340 | 899 ft | 110 kts | 246° |
| 2026-05-01 11:28 | 25.03459 | 55.00611 | 926 ft | 107 kts | 242° |
| 2026-05-01 11:29 | 25.02723 | 54.99171 | 941 ft | 109 kts | 234° |
| 2026-05-01 11:29 | 25.02232 | 54.98540 | 970 ft | 108 kts | 230° |
| 2026-05-01 11:29 | 25.01074 | 54.97176 | 904 ft | 129 kts | 219° |
| 2026-05-01 11:30 | 25.00308 | 54.96661 | 931 ft | 131 kts | 210° |
| 2026-05-01 11:30 | 24.99511 | 54.96216 | 991 ft | 129 kts | 208° |
| 2026-05-01 11:30 | 24.98701 | 54.95765 | 1005 ft | 132 kts | 209° |
| 2026-05-01 11:30 | 24.97901 | 54.95291 | 1071 ft | 129 kts | 211° |
| 2026-05-01 11:31 | 24.97092 | 54.94805 | 1013 ft | 133 kts | 210° |
| 2026-05-01 11:31 | 24.96280 | 54.94313 | 991 ft | 135 kts | 209° |
| 2026-05-01 11:31 | 24.95410 | 54.93906 | 951 ft | 135 kts | 204° |
| 2026-05-01 11:31 | 24.94554 | 54.93474 | 882 ft | 137 kts | 211° |
| 2026-05-01 11:32 | 24.93767 | 54.92919 | 871 ft | 133 kts | 215° |
| 2026-05-01 11:32 | 24.92968 | 54.92396 | 854 ft | 132 kts | 210° |
| 2026-05-01 11:32 | 24.92163 | 54.91916 | 831 ft | 134 kts | 211° |
| 2026-05-01 11:32 | 24.91364 | 54.91395 | 818 ft | 134 kts | 211° |
| 2026-05-01 11:33 | 24.90551 | 54.90892 | 777 ft | 134 kts | 211° |
| 2026-05-01 11:33 | 24.89755 | 54.90373 | 757 ft | 133 kts | 214° |
| 2026-05-01 11:33 | 24.89001 | 54.89774 | 720 ft | 133 kts | 221° |
| 2026-05-01 11:33 | 24.88227 | 54.89206 | 617 ft | 138 kts | 203° |
| 2026-05-01 11:34 | 24.87309 | 54.88952 | 589 ft | 136 kts | 195° |
| 2026-05-01 11:34 | 24.86411 | 54.88671 | 617 ft | 133 kts | 199° |
| 2026-05-01 11:34 | 24.85539 | 54.88329 | 596 ft | 134 kts | 202° |
| 2026-05-01 11:34 | 24.84703 | 54.87975 | 717 ft | 130 kts | 204° |
| 2026-05-01 11:35 | 24.83873 | 54.87588 | 735 ft | 132 kts | 205° |
| 2026-05-01 11:35 | 24.83032 | 54.87192 | 792 ft | 131 kts | 205° |
| 2026-05-01 11:35 | 24.82190 | 54.86804 | 840 ft | 131 kts | 204° |
| 2026-05-01 11:35 | 24.81350 | 54.86408 | 877 ft | 132 kts | 206° |
| 2026-05-01 11:36 | 24.80542 | 54.85941 | 911 ft | 131 kts | 211° |
| 2026-05-01 11:36 | 24.79724 | 54.85490 | 916 ft | 132 kts | 205° |
| 2026-05-01 11:36 | 24.78871 | 54.85113 | 941 ft | 131 kts | 203° |
| 2026-05-01 11:36 | 24.78029 | 54.84731 | 964 ft | 132 kts | 206° |
| 2026-05-01 11:37 | 24.77217 | 54.84273 | 979 ft | 131 kts | 213° |
| 2026-05-01 11:37 | 24.76451 | 54.83751 | 979 ft | 131 kts | 210° |
| 2026-05-01 11:37 | 24.75583 | 54.83427 | 988 ft | 134 kts | 192° |
| 2026-05-01 11:37 | 24.74667 | 54.83503 | 956 ft | 139 kts | 157° |
| 2026-05-01 11:38 | 24.74006 | 54.84279 | 884 ft | 141 kts | 115° |
| 2026-05-01 11:38 | 24.73652 | 54.85256 | 897 ft | 139 kts | 111° |
| 2026-05-01 11:38 | 24.73346 | 54.86263 | 908 ft | 138 kts | 109° |
| 2026-05-01 11:38 | 24.73005 | 54.87207 | 915 ft | 127 kts | 114° |
| 2026-05-01 11:39 | 24.72671 | 54.88113 | 817 ft | 128 kts | 114° |
| 2026-05-01 11:39 | 24.72235 | 54.88831 | 681 ft | 100 kts | 144° |
| 2026-05-01 11:39 | 24.71658 | 54.88983 | 542 ft | 74 kts | 189° |
| 2026-05-01 11:39 | 24.71140 | 54.88845 | 248 ft | 82 kts | 202° |
| 2026-05-01 11:40 | 24.70720 | 54.88605 | 336 ft | 68 kts | 218° |
| 2026-05-01 11:40 | 24.70347 | 54.88251 | 626 ft | 76 kts | 225° |
| 2026-05-01 11:40 | 24.69944 | 54.87856 | 658 ft | 85 kts | 228° |
| 2026-05-01 11:40 | 24.69738 | 54.87286 | 502 ft | 94 kts | 269° |
| 2026-05-01 11:41 | 24.69853 | 54.86677 | 375 ft | 68 kts | 284° |
| 2026-05-01 11:41 | 24.69979 | 54.86226 | 302 ft | 57 kts | 292° |
| 2026-05-01 11:41 | 24.70182 | 54.85869 | 222 ft | 53 kts | 306° |
| 2026-05-01 11:41 | 24.70527 | 54.85493 | 349 ft | 91 kts | 316° |
| 2026-05-01 11:42 | 24.70977 | 54.85180 | 353 ft | 66 kts | 330° |
| 2026-05-01 11:42 | 24.71331 | 54.84936 | 285 ft | 57 kts | 321° |
| 2026-05-01 11:42 | 24.71640 | 54.84660 | 176 ft | 58 kts | 317° |
| 2026-05-01 11:42 | 24.71903 | 54.84377 | 128 ft | 48 kts | 306° |
| 2026-05-01 11:43 | 24.72173 | 54.83991 | 164 ft | 68 kts | 303° |
| 2026-05-01 11:43 | 24.72411 | 54.83604 | 74 ft | 56 kts | 303° |
| 2026-05-01 11:43 | 24.72590 | 54.83304 | 62 ft | 40 kts | 302° |
| 2026-05-01 11:44 | 24.72664 | 54.83095 | 59 ft | 0 kts | 219° |